createdAt,value
2022-09-24T00:00:14.397Z,5.37
2022-09-24T00:03:22.963Z,12.63
2022-09-24T00:06:31.054Z,6.30
2022-09-24T00:09:36.970Z,5.60
2022-09-24T00:12:43.371Z,5.80
2022-09-24T00:15:51.680Z,5.53
2022-09-24T00:19:00.566Z,5.77
2022-09-24T00:22:06.817Z,5.60
2022-09-24T00:25:30.888Z,6.37
2022-09-24T00:28:37.221Z,5.73
2022-09-24T00:31:43.508Z,5.30
2022-09-24T00:34:53.323Z,5.10
2022-09-24T00:37:59.886Z,5.43
2022-09-24T00:41:06.452Z,5.10
2022-09-24T00:44:55.646Z,4.83
2022-09-24T00:48:01.792Z,5.80
2022-09-24T00:51:11.045Z,5.90
2022-09-24T00:54:20.981Z,5.90
2022-09-24T00:57:28.402Z,5.20
2022-09-24T01:00:35.406Z,5.43
2022-09-24T01:03:43.285Z,5.97
2022-09-24T01:06:51.369Z,5.80
2022-09-24T01:09:58.051Z,6.67
2022-09-24T01:13:15.231Z,5.87
2022-09-24T01:16:29.662Z,5.90
2022-09-24T01:19:54.515Z,5.60
2022-09-24T01:23:23.262Z,6.40
2022-09-24T01:26:48.576Z,5.37
2022-09-24T01:30:05.394Z,5.00
2022-09-24T01:33:17.420Z,5.53
2022-09-24T01:36:24.985Z,4.97
2022-09-24T01:39:33.195Z,10.73
2022-09-24T01:42:43.992Z,4.53
2022-09-24T01:45:52.343Z,5.07
2022-09-24T01:48:58.571Z,5.03
2022-09-24T01:52:11.896Z,4.27
2022-09-24T01:55:21.552Z,5.70
2022-09-24T01:58:33.085Z,5.83
2022-09-24T02:01:48.703Z,6.77
2022-09-24T02:05:00.864Z,7.73
2022-09-24T02:08:10.819Z,6.00
2022-09-24T02:11:21.896Z,5.67
2022-09-24T02:14:32.907Z,5.00
2022-09-24T02:17:45.352Z,5.20
2022-09-24T02:20:52.917Z,10.80
2022-09-24T02:24:04.500Z,5.47
2022-09-24T02:27:10.702Z,5.53
2022-09-24T02:30:17.478Z,6.13
2022-09-24T02:33:59.688Z,5.97
2022-09-24T02:37:08.715Z,5.67
2022-09-24T02:40:16.023Z,5.60
2022-09-24T02:43:22.559Z,5.43
2022-09-24T02:46:28.992Z,6.37
2022-09-24T02:49:36.597Z,6.73
2022-09-24T02:52:42.926Z,10.03
2022-09-24T02:55:49.124Z,5.10
2022-09-24T02:58:55.630Z,6.67
2022-09-24T03:02:01.879Z,12.80
2022-09-24T03:05:10.465Z,5.40
2022-09-24T03:08:16.651Z,5.33
2022-09-24T03:11:22.992Z,6.37
2022-09-24T03:14:29.435Z,5.67
2022-09-24T03:17:35.832Z,6.20
2022-09-24T03:20:43.596Z,4.90
2022-09-24T03:23:49.772Z,5.43
2022-09-24T03:26:56.186Z,5.47
2022-09-24T03:30:20.277Z,6.07
2022-09-24T03:33:26.505Z,5.53
2022-09-24T03:36:34.164Z,6.73
2022-09-24T03:39:40.477Z,5.77
2022-09-24T03:42:46.807Z,5.30
2022-09-24T03:45:53.434Z,7.20
2022-09-24T03:49:00.746Z,5.67
2022-09-24T03:52:08.394Z,5.27
2022-09-24T03:55:14.668Z,6.07
2022-09-24T03:58:20.594Z,6.70
2022-09-24T04:01:27.184Z,11.90
2022-09-24T04:04:33.483Z,9.70
2022-09-24T04:07:41.843Z,8.33
2022-09-24T04:10:48.101Z,13.00
2022-09-24T04:13:54.637Z,7.00
2022-09-24T04:17:01.017Z,5.40
2022-09-24T04:20:08.004Z,5.97
2022-09-24T04:23:15.917Z,4.10
2022-09-24T04:26:21.812Z,6.10
2022-09-24T04:29:28.304Z,5.60
2022-09-24T04:32:34.846Z,10.63
2022-09-24T04:35:41.260Z,16.63
2022-09-24T04:38:49.142Z,25.10
2022-09-24T04:41:55.470Z,7.73
2022-09-24T04:45:03.167Z,6.73
2022-09-24T04:48:09.268Z,13.97
2022-09-24T04:51:15.827Z,11.57
2022-09-24T04:54:23.420Z,34.23
2022-09-24T04:57:36.066Z,20.10
2022-09-24T05:00:43.382Z,22.53
2022-09-24T05:03:49.380Z,20.60
2022-09-24T05:06:55.845Z,25.20
2022-09-24T05:10:04.996Z,12.73
2022-09-24T05:13:11.637Z,10.03
2022-09-24T05:16:17.974Z,8.27
2022-09-24T05:19:24.425Z,15.20
2022-09-24T05:22:31.707Z,9.30
2022-09-24T05:25:59.551Z,7.77
2022-09-24T05:29:04.827Z,7.27
2022-09-24T05:32:12.985Z,9.93
2022-09-24T05:35:20.062Z,10.90
2022-09-24T05:38:26.192Z,7.93
2022-09-24T05:41:34.053Z,6.60
2022-09-24T05:44:40.219Z,6.60
2022-09-24T05:47:47.044Z,7.50
2022-09-24T05:50:55.635Z,8.13
2022-09-24T05:54:02.109Z,6.10
2022-09-24T05:57:09.961Z,7.73
2022-09-24T06:00:16.727Z,6.53
2022-09-24T06:03:22.846Z,7.60
2022-09-24T06:06:29.862Z,7.93
2022-09-24T06:09:36.678Z,11.47
2022-09-24T06:12:44.043Z,8.97
2022-09-24T06:15:50.197Z,7.33
2022-09-24T06:18:55.948Z,8.90
2022-09-24T06:22:02.329Z,7.80
2022-09-24T06:25:10.193Z,7.67
2022-09-24T06:28:17.933Z,6.07
2022-09-24T06:31:24.333Z,5.73
2022-09-24T06:34:30.554Z,6.37
2022-09-24T06:37:36.504Z,7.70
2022-09-24T06:40:43.602Z,7.83
2022-09-24T06:43:51.239Z,6.47
2022-09-24T06:46:58.121Z,6.03
2022-09-24T06:50:04.393Z,13.43
2022-09-24T06:53:12.007Z,6.63
2022-09-24T06:56:18.452Z,5.90
2022-09-24T06:59:26.030Z,5.33
2022-09-24T07:02:32.665Z,6.63
2022-09-24T07:05:43.406Z,8.67
2022-09-24T07:08:52.451Z,4.60
2022-09-24T07:12:01.645Z,13.80
2022-09-24T07:15:10.903Z,5.50
2022-09-24T07:18:18.464Z,13.77
2022-09-24T07:21:24.609Z,6.23
2022-09-24T07:24:30.951Z,5.07
2022-09-24T07:27:37.357Z,5.33
2022-09-24T07:30:45.209Z,7.63
2022-09-24T07:33:51.890Z,5.70
2022-09-24T07:36:58.923Z,5.47
2022-09-24T07:40:05.867Z,6.33
2022-09-24T07:43:14.321Z,4.63
2022-09-24T07:46:21.981Z,7.40
2022-09-24T07:49:32.304Z,4.23
2022-09-24T07:52:38.581Z,7.03
2022-09-24T07:55:45.606Z,4.30
2022-09-24T07:58:52.113Z,3.90
2022-09-24T08:01:59.834Z,3.70
2022-09-24T08:05:07.040Z,3.50
2022-09-24T08:08:13.246Z,5.73
2022-09-24T08:11:20.561Z,3.30
2022-09-24T08:14:26.815Z,4.40
2022-09-24T08:17:34.778Z,3.40
2022-09-24T08:20:41.257Z,3.90
2022-09-24T08:23:47.836Z,3.37
2022-09-24T08:26:54.386Z,2.80
2022-09-24T08:30:00.764Z,3.27
2022-09-24T08:33:08.388Z,3.50
2022-09-24T08:36:15.030Z,3.10
2022-09-24T08:39:21.187Z,3.67
2022-09-24T08:42:36.881Z,3.70
2022-09-24T08:46:07.085Z,9.07
2022-09-24T08:49:18.615Z,3.50
2022-09-24T08:52:37.731Z,4.30
2022-09-24T08:55:48.363Z,3.53
2022-09-24T08:58:59.797Z,3.87
2022-09-24T09:02:36.186Z,3.63
2022-09-24T09:05:57.858Z,4.67
2022-09-24T09:09:12.576Z,2.60
2022-09-24T09:12:24.807Z,3.00
2022-09-24T09:15:35.275Z,3.07
2022-09-24T09:18:46.188Z,3.10
2022-09-24T09:21:58.539Z,2.67
2022-09-24T09:25:18.493Z,2.43
2022-09-24T09:28:24.623Z,2.83
2022-09-24T09:31:44.438Z,7.03
2022-09-24T09:35:01.114Z,2.30
2022-09-24T09:38:20.751Z,2.30
2022-09-24T09:41:36.165Z,2.60
2022-09-24T09:44:44.825Z,2.40
2022-09-24T09:47:55.898Z,2.40
2022-09-24T09:51:06.207Z,2.47
2022-09-24T09:54:13.971Z,2.40
2022-09-24T09:57:23.326Z,1.90
2022-09-24T10:00:35.255Z,2.07
2022-09-24T10:03:50.156Z,7.83
2022-09-24T10:07:06.030Z,2.00
2022-09-24T10:10:20.972Z,2.43
2022-09-24T10:13:28.765Z,2.10
2022-09-24T10:16:40.610Z,3.20
2022-09-24T10:19:50.995Z,2.23
2022-09-24T10:23:00.434Z,2.00
2022-09-24T10:26:08.819Z,1.90
2022-09-24T10:29:35.944Z,1.83
2022-09-24T10:32:42.739Z,2.20
2022-09-24T10:35:49.515Z,8.77
2022-09-24T10:39:04.587Z,8.87
2022-09-24T10:42:25.269Z,2.23
2022-09-24T10:45:58.296Z,2.37
2022-09-24T10:49:16.375Z,2.30
2022-09-24T10:52:40.647Z,2.33
2022-09-24T10:55:57.283Z,2.20
2022-09-24T10:59:23.735Z,2.40
2022-09-24T11:03:02.106Z,2.10
2022-09-24T11:06:19.459Z,1.87
2022-09-24T11:09:38.889Z,2.37
2022-09-24T11:12:54.004Z,1.80
2022-09-24T11:16:21.127Z,1.80
2022-09-24T11:19:52.000Z,2.33
2022-09-24T11:23:24.667Z,1.97
2022-09-24T11:26:39.655Z,2.10
2022-09-24T11:30:04.014Z,2.13
2022-09-24T11:33:26.385Z,1.93
2022-09-24T11:36:47.307Z,2.30
2022-09-24T11:40:10.978Z,7.93
2022-09-24T11:43:42.311Z,2.20
2022-09-24T11:47:04.142Z,2.77
2022-09-24T11:50:34.033Z,5.47
2022-09-24T11:53:44.931Z,5.03
2022-09-24T11:56:57.946Z,2.60
2022-09-24T12:00:09.774Z,3.30
2022-09-24T12:03:25.891Z,2.23
2022-09-24T12:06:37.851Z,2.13
2022-09-24T12:09:49.398Z,2.10
2022-09-24T12:13:04.307Z,2.90
2022-09-24T12:16:14.724Z,2.40
2022-09-24T12:19:25.608Z,2.03
2022-09-24T12:22:37.004Z,1.90
2022-09-24T12:25:46.596Z,3.33
2022-09-24T12:29:17.596Z,2.27
2022-09-24T12:32:48.871Z,2.07
2022-09-24T12:36:04.605Z,2.43
2022-09-24T12:39:16.688Z,2.10
2022-09-24T12:42:26.119Z,2.07
2022-09-24T12:45:34.269Z,2.77
2022-09-24T12:48:41.248Z,5.67
2022-09-24T12:51:47.968Z,2.37
2022-09-24T12:55:02.553Z,2.27
2022-09-24T12:58:29.907Z,2.63
2022-09-24T13:01:36.569Z,3.00
2022-09-24T13:04:46.366Z,2.87
2022-09-24T13:08:01.598Z,3.47
2022-09-24T13:11:31.174Z,3.77
2022-09-24T13:14:37.676Z,3.20
2022-09-24T13:17:45.035Z,3.30
2022-09-24T13:21:07.692Z,4.60
2022-09-24T13:24:30.923Z,2.53
2022-09-24T13:27:41.391Z,2.70
2022-09-24T13:30:53.220Z,2.27
2022-09-24T13:34:04.054Z,2.27
2022-09-24T13:37:20.148Z,4.17
2022-09-24T13:40:30.082Z,2.67
2022-09-24T13:43:48.591Z,5.50
2022-09-24T13:47:00.622Z,2.63
2022-09-24T13:50:16.292Z,2.90
2022-09-24T13:53:30.039Z,3.43
2022-09-24T13:56:36.298Z,2.73
2022-09-24T13:59:43.951Z,3.50
2022-09-24T14:02:58.056Z,16.03
2022-09-24T14:06:12.705Z,3.73
2022-09-24T14:09:31.681Z,2.67
2022-09-24T14:12:38.064Z,2.77
2022-09-24T14:15:55.295Z,9.13
2022-09-24T14:19:04.452Z,2.83
2022-09-24T14:22:16.201Z,2.37
2022-09-24T14:25:29.160Z,3.27
2022-09-24T14:28:36.320Z,2.60
2022-09-24T14:31:50.380Z,3.00
2022-09-24T14:34:59.679Z,2.57
2022-09-24T14:38:09.635Z,2.20
2022-09-24T14:41:19.166Z,2.50
2022-09-24T14:44:28.241Z,2.37
2022-09-24T14:47:37.720Z,7.67
2022-09-24T14:50:43.927Z,4.40
2022-09-24T14:53:59.520Z,4.97
2022-09-24T14:57:13.556Z,5.03
2022-09-24T15:00:25.250Z,6.17
2022-09-24T15:03:40.330Z,5.23
2022-09-24T15:06:49.136Z,7.20
2022-09-24T15:09:57.715Z,6.57
2022-09-24T15:13:15.498Z,5.53
2022-09-24T15:16:28.879Z,21.10
2022-09-24T15:19:37.321Z,22.73
2022-09-24T15:22:43.623Z,17.80
2022-09-24T15:25:50.708Z,17.27
2022-09-24T15:28:58.668Z,21.20
2022-09-24T15:32:17.344Z,13.83
2022-09-24T15:35:25.178Z,8.87
2022-09-24T15:38:31.676Z,6.40
2022-09-24T15:41:40.308Z,3.17
2022-09-24T15:44:47.680Z,2.87
2022-09-24T15:47:54.997Z,3.90
2022-09-24T15:51:10.133Z,4.33
2022-09-24T15:54:18.018Z,4.00
2022-09-24T15:57:24.424Z,4.30
2022-09-24T16:00:30.950Z,4.10
2022-09-24T16:03:37.384Z,3.37
2022-09-24T16:06:45.171Z,4.40
2022-09-24T16:09:51.503Z,3.10
2022-09-24T16:12:57.892Z,3.80
2022-09-24T16:16:07.005Z,4.20
2022-09-24T16:19:13.200Z,5.93
2022-09-24T16:22:20.914Z,4.13
2022-09-24T16:25:28.171Z,3.83
2022-09-24T16:28:34.378Z,6.93
2022-09-24T16:31:40.686Z,5.00
2022-09-24T16:34:46.909Z,7.97
2022-09-24T16:37:55.037Z,15.27
2022-09-24T16:41:01.385Z,7.97
2022-09-24T16:44:07.839Z,6.53
2022-09-24T16:47:16.409Z,12.83
2022-09-24T16:50:23.795Z,8.27
2022-09-24T16:53:31.514Z,5.77
2022-09-24T16:56:38.768Z,5.53
2022-09-24T16:59:44.843Z,6.90
2022-09-24T17:02:50.949Z,12.90
2022-09-24T17:05:57.300Z,20.30
2022-09-24T17:09:22.767Z,7.07
2022-09-24T17:12:28.954Z,8.13
2022-09-24T17:15:35.730Z,6.23
2022-09-24T17:18:41.953Z,8.40
2022-09-24T17:21:50.331Z,19.87
2022-09-24T17:24:58.422Z,22.23
2022-09-24T17:28:04.452Z,48.43
2022-09-24T17:31:12.642Z,40.93
2022-09-24T17:34:19.426Z,29.57
2022-09-24T17:37:27.428Z,19.60
2022-09-24T17:40:35.184Z,11.63
2022-09-24T17:43:42.764Z,23.27
2022-09-24T17:46:49.187Z,17.40
2022-09-24T17:49:55.784Z,11.80
2022-09-24T17:53:03.926Z,12.03
2022-09-24T17:56:13.804Z,12.73
2022-09-24T17:59:25.575Z,16.47
2022-09-24T18:02:32.839Z,18.03
2022-09-24T18:05:39.245Z,22.13
2022-09-24T18:08:46.781Z,27.13
2022-09-24T18:11:54.498Z,15.87
2022-09-24T18:15:00.412Z,20.47
2022-09-24T18:18:07.060Z,19.03
2022-09-24T18:21:15.449Z,17.90
2022-09-24T18:24:23.054Z,31.03
2022-09-24T18:27:31.848Z,25.50
2022-09-24T18:30:38.539Z,29.97
2022-09-24T18:33:46.630Z,36.57
2022-09-24T18:36:52.736Z,34.80
2022-09-24T18:39:58.713Z,28.60
2022-09-24T18:43:06.517Z,30.23
2022-09-24T18:46:14.624Z,48.17
2022-09-24T18:49:21.291Z,24.53
2022-09-24T18:52:28.973Z,29.93
2022-09-24T18:55:40.733Z,19.90
2022-09-24T18:58:48.326Z,20.77
2022-09-24T19:01:54.544Z,15.87
2022-09-24T19:05:01.000Z,19.47
2022-09-24T19:08:07.710Z,15.03
2022-09-24T19:11:16.335Z,18.43
2022-09-24T19:14:24.893Z,15.30
2022-09-24T19:17:31.251Z,16.70
2022-09-24T19:20:38.539Z,16.53
2022-09-24T19:23:47.579Z,19.57
2022-09-24T19:26:54.274Z,14.50
2022-09-24T19:30:01.794Z,16.47
2022-09-24T19:33:08.701Z,13.47
2022-09-24T19:36:15.758Z,13.47
2022-09-24T19:39:22.319Z,15.20
2022-09-24T19:42:28.320Z,21.53
2022-09-24T19:45:36.531Z,14.00
2022-09-24T19:48:44.858Z,19.07
2022-09-24T19:51:51.342Z,14.07
2022-09-24T19:54:57.729Z,10.60
2022-09-24T19:58:04.152Z,32.77
2022-09-24T20:01:16.867Z,72.60
2022-09-24T20:04:24.752Z,13.10
2022-09-24T20:07:30.858Z,35.83
2022-09-24T20:10:37.724Z,15.30
2022-09-24T20:13:46.327Z,17.70
2022-09-24T20:16:54.000Z,16.07
2022-09-24T20:20:01.017Z,14.30
2022-09-24T20:23:08.330Z,15.47
2022-09-24T20:26:35.414Z,10.47
2022-09-24T20:29:43.639Z,7.47
2022-09-24T20:32:51.558Z,9.27
2022-09-24T20:36:03.749Z,7.17
2022-09-24T20:39:10.103Z,4.67
2022-09-24T20:42:16.232Z,6.00
2022-09-24T20:45:22.744Z,7.43
2022-09-24T20:48:32.748Z,9.83
2022-09-24T20:51:38.920Z,8.07
2022-09-24T20:55:02.454Z,12.00
2022-09-24T20:58:09.233Z,14.10
2022-09-24T21:01:15.909Z,7.20
2022-09-24T21:04:37.098Z,7.10
2022-09-24T21:07:43.879Z,7.20
2022-09-24T21:10:50.011Z,7.07
2022-09-24T21:13:58.482Z,7.47
2022-09-24T21:17:06.128Z,8.77
2022-09-24T21:20:13.771Z,7.33
2022-09-24T21:23:22.088Z,8.07
2022-09-24T21:26:30.128Z,9.27
2022-09-24T21:29:36.118Z,7.10
2022-09-24T21:32:42.675Z,7.00
2022-09-24T21:35:50.408Z,5.13
2022-09-24T21:38:58.287Z,3.67
2022-09-24T21:42:05.476Z,3.87
2022-09-24T21:45:13.833Z,4.13
2022-09-24T21:48:20.820Z,6.17
2022-09-24T21:51:30.314Z,6.27
2022-09-24T21:54:36.708Z,7.03
2022-09-24T21:57:42.877Z,8.07
2022-09-24T22:00:49.273Z,6.97
2022-09-24T22:03:56.664Z,7.13
2022-09-24T22:07:04.067Z,7.83
2022-09-24T22:10:11.249Z,6.87
2022-09-24T22:13:18.039Z,8.57
2022-09-24T22:16:24.952Z,7.60
2022-09-24T22:19:31.323Z,5.47
2022-09-24T22:22:38.776Z,6.83
2022-09-24T22:25:46.181Z,6.93
2022-09-24T22:28:52.223Z,6.83
2022-09-24T22:31:58.758Z,7.27
2022-09-24T22:35:22.373Z,5.80
2022-09-24T22:38:29.769Z,5.10
2022-09-24T22:41:38.810Z,5.03
2022-09-24T22:44:44.801Z,4.80
2022-09-24T22:47:51.086Z,6.13
2022-09-24T22:50:57.671Z,5.23
2022-09-24T22:54:05.465Z,6.97
2022-09-24T22:57:11.666Z,5.60
2022-09-24T23:00:18.350Z,5.23
2022-09-24T23:03:24.924Z,5.03
2022-09-24T23:06:33.953Z,5.23
2022-09-24T23:09:41.630Z,4.70
2022-09-24T23:12:48.028Z,4.40
2022-09-24T23:15:54.865Z,4.03
2022-09-24T23:19:02.856Z,4.90
2022-09-24T23:22:09.183Z,6.03
2022-09-24T23:25:17.794Z,5.47
2022-09-24T23:28:24.375Z,5.60
2022-09-24T23:31:33.004Z,4.53
2022-09-24T23:34:42.285Z,9.83
2022-09-24T23:37:48.588Z,9.07
2022-09-24T23:40:56.995Z,5.07
2022-09-24T23:44:03.621Z,14.07
2022-09-24T23:47:10.264Z,6.37
2022-09-24T23:50:16.640Z,6.07
2022-09-24T23:53:22.986Z,6.83
2022-09-24T23:56:30.885Z,6.07
2022-09-24T23:59:37.056Z,5.70
